KDLF/DLF METAR and TAF weather

Enter ICAO airport designator
Station Type Date Time Source
KDLF METAR 2019/02/23 16:56 UTC NOAA

KDLF 231656Z AUTO 32024G31KT 10SM CLR 17/M04 A3001 RMK AO2 PK WND 30033/42 SLP157 T01721036 RVRNO


Station Type Date Time Source
KDLF Decoded METAR 2019/02/23 16:56 UTC NOAA

Laughlin, Laughlin Air Force Base Auxiliary Airfield, TX, United States (KDLF) 29-07-00N 100-28-00W 294M
Feb 23, 2019 - 11:56 AM EST / 2019.02.23 1656 UTC
Wind: from the NW (320 degrees) at 28 MPH (24 KT) gusting to 36 MPH (31 KT):0
Visibility: 10 mile(s):0
Sky conditions: clear
Temperature: 63.0 F (17.2 C)
Dew Point: 25.5 F (-3.6 C)
Relative Humidity: 23%
Pressure (altimeter): 30.01 in. Hg (1016 hPa)
ob: KDLF 231656Z AUTO 32024G31KT 10SM CLR 17/M04 A3001 RMK AO2 PK WND 30033/42 SLP157 T01721036 RVRNO
cycle: 17

Station Type Date Time Source
KDLF TAF 2019/02/23 17:54 UTC NOAA

TAF KDLF 231647Z 2317/2416 32015G25KT 9999 SCT250 QNH2996INS
TEMPO 2317/2324 33025G35KT 510003
BECMG 2323/2324 29009KT 9999 SKC QNH3002INS
BECMG 2405/2406 33006KT 9999 SKC QNH3013INS TX21/2322Z TN11/2402Z LIMITED METWATCH 2313 TIL 2418


Example: see airport list